createdAt,value
2023-03-07T00:04:36.236Z,56.80
2023-03-07T00:14:43.517Z,45.00
2023-03-07T00:24:50.465Z,41.90
2023-03-07T00:34:59.176Z,47.80
2023-03-07T00:45:05.421Z,53.10
2023-03-07T00:55:13.147Z,57.50
2023-03-07T01:05:20.348Z,55.30
2023-03-07T01:15:27.712Z,60.80
2023-03-07T01:25:38.134Z,50.70
2023-03-07T01:35:45.265Z,54.20
2023-03-07T01:46:27.028Z,37.20
2023-03-07T01:56:34.423Z,60.40
2023-03-07T02:06:42.056Z,61.30
2023-03-07T02:16:49.732Z,67.90
2023-03-07T02:26:58.250Z,65.20
2023-03-07T02:37:10.097Z,62.50
2023-03-07T02:47:18.061Z,54.40
2023-03-07T02:57:28.061Z,53.60
2023-03-07T03:07:35.384Z,48.30
2023-03-07T03:17:43.106Z,46.30
2023-03-07T03:27:50.278Z,57.50
2023-03-07T03:37:57.975Z,66.00
2023-03-07T03:48:05.006Z,58.90
2023-03-07T03:58:12.359Z,57.00
2023-03-07T04:08:22.403Z,59.40
2023-03-07T04:18:29.442Z,52.30
2023-03-07T04:28:51.096Z,50.40
2023-03-07T04:38:58.193Z,47.20
2023-03-07T04:49:05.554Z,62.30
2023-03-07T04:59:12.724Z,69.40
2023-03-07T05:09:19.891Z,67.60
2023-03-07T05:19:27.231Z,59.50
2023-03-07T05:29:32.022Z,59.40
2023-03-07T05:39:39.172Z,54.90
2023-03-07T05:49:46.225Z,56.30
2023-03-07T05:59:53.344Z,80.10
2023-03-07T06:10:00.622Z,77.50
2023-03-07T06:20:07.593Z,93.20
2023-03-07T06:30:16.154Z,82.80
2023-03-07T06:40:22.618Z,64.80
2023-03-07T06:50:35.093Z,48.40
2023-03-07T07:00:42.964Z,53.70
2023-03-07T07:10:50.282Z,61.20
2023-03-07T07:20:54.975Z,55.60
2023-03-07T07:31:03.713Z,49.80
2023-03-07T07:41:11.010Z,26.80
2023-03-07T07:51:18.562Z,37.10
2023-03-07T08:01:25.570Z,42.40
2023-03-07T08:11:31.772Z,43.00
2023-03-07T08:21:38.881Z,38.10
2023-03-07T08:31:46.234Z,36.50
2023-03-07T08:41:56.020Z,33.60
2023-03-07T08:52:03.182Z,37.10
2023-03-07T09:02:11.024Z,33.00
2023-03-07T09:12:18.286Z,28.10
2023-03-07T09:22:25.567Z,30.80
2023-03-07T09:32:33.400Z,27.10
2023-03-07T09:52:47.434Z,32.30
2023-03-07T10:02:55.588Z,45.30
2023-03-07T10:13:16.141Z,28.20
2023-03-07T10:24:06.065Z,23.80
2023-03-07T10:34:25.647Z,29.80
2023-03-07T10:44:36.130Z,24.60
2023-03-07T10:54:43.347Z,19.80
2023-03-07T11:04:48.487Z,24.60
2023-03-07T11:14:58.188Z,20.90
2023-03-07T11:25:08.065Z,24.70
2023-03-07T11:35:14.101Z,27.30
2023-03-07T11:45:25.422Z,22.10
2023-03-07T11:55:30.705Z,21.70
2023-03-07T12:05:39.650Z,26.00
2023-03-07T12:15:46.149Z,20.80
2023-03-07T12:25:56.692Z,27.80
2023-03-07T12:36:10.115Z,25.50
2023-03-07T12:46:16.744Z,22.30
2023-03-07T12:56:28.103Z,21.80
2023-03-07T13:06:40.093Z,21.30
2023-03-07T13:16:48.256Z,27.40
2023-03-07T13:26:56.667Z,28.70
2023-03-07T13:37:41.016Z,24.10
2023-03-07T13:47:46.038Z,19.80
2023-03-07T13:57:55.163Z,24.30
2023-03-07T14:08:01.941Z,24.70
2023-03-07T14:18:16.710Z,25.20
2023-03-07T14:28:26.145Z,28.10
2023-03-07T14:38:34.156Z,23.40
2023-03-07T14:48:47.532Z,36.60
2023-03-07T14:58:55.356Z,28.10
2023-03-07T15:09:08.531Z,33.90
2023-03-07T15:19:22.772Z,33.40
2023-03-07T15:29:33.121Z,28.20
2023-03-07T15:39:40.737Z,27.10
2023-03-07T15:49:51.017Z,29.10
2023-03-07T15:59:59.486Z,30.90
2023-03-07T16:10:06.052Z,40.10
2023-03-07T16:20:14.861Z,32.20
2023-03-07T16:30:25.688Z,41.20
2023-03-07T16:40:34.446Z,43.40
2023-03-07T16:50:42.105Z,37.50
2023-03-07T17:00:49.643Z,39.00
2023-03-07T17:10:57.388Z,52.90
2023-03-07T17:21:04.661Z,33.40
2023-03-07T17:31:11.427Z,41.40
2023-03-07T17:41:18.029Z,45.10
2023-03-07T17:51:25.167Z,40.80
2023-03-07T18:01:30.594Z,32.80
2023-03-07T18:11:38.022Z,26.80
2023-03-07T18:21:45.836Z,33.40
2023-03-07T18:31:53.578Z,28.50
2023-03-07T18:42:00.964Z,19.90
2023-03-07T18:52:08.073Z,30.50
2023-03-07T19:02:15.161Z,37.10
2023-03-07T19:12:22.885Z,27.70
2023-03-07T19:22:30.256Z,34.80
2023-03-07T19:32:37.471Z,37.90
2023-03-07T19:42:44.876Z,47.40
2023-03-07T19:52:51.945Z,55.70
2023-03-07T20:03:00.328Z,35.80
2023-03-07T20:13:08.304Z,31.40
2023-03-07T20:23:15.353Z,42.90
2023-03-07T20:33:23.096Z,44.80
2023-03-07T20:43:30.168Z,49.90
2023-03-07T20:53:37.286Z,32.10
2023-03-07T21:03:44.637Z,22.00
2023-03-07T21:13:52.323Z,37.30
2023-03-07T21:24:00.337Z,33.00
2023-03-07T21:34:09.704Z,38.80
2023-03-07T21:44:17.686Z,24.50
2023-03-07T22:04:31.068Z,33.50
2023-03-07T22:14:38.776Z,37.20
2023-03-07T22:24:45.804Z,26.90
2023-03-07T22:34:53.030Z,25.10
2023-03-07T22:45:00.123Z,31.50
2023-03-07T22:55:07.999Z,40.40
2023-03-07T23:15:22.042Z,30.50
2023-03-07T23:25:29.118Z,24.20
2023-03-07T23:35:34.913Z,24.80
2023-03-07T23:45:42.402Z,38.20
2023-03-07T23:55:49.492Z,40.80
